Time;durP1;ratioP1;P1;durP2;ratioP2;P2;SDS_P1;SDS_P2;PMS_P1;PMS_P2;Temp;Humidity;BMP_temperature;BMP_pressure;BME280_temperature;BME280_humidity;BME280_pressure;Samples;Min_cycle;Max_cycle;Signal;HPM_P1;HPM_P2
2020/12/01 00:00:12;;;;;;;46.08;25.55;;;;;;;6.46;59.55;101920.19;5031181;28;20052;-62
2020/12/01 00:02:38;;;;;;;40.72;24.33;;;;;;;6.45;59.64;101905.44;5034343;28;20142;-62
2020/12/01 00:05:05;;;;;;;39.22;23.60;;;;;;;6.45;59.96;101911.53;5033992;28;20123;-62
2020/12/01 00:07:31;;;;;;;40.60;23.65;;;;;;;6.45;59.99;101898.47;5034063;28;20057;-61
2020/12/01 00:09:57;;;;;;;36.88;22.50;;;;;;;6.44;59.88;101901.97;5034358;28;20052;-62
2020/12/01 00:12:23;;;;;;;36.90;23.33;;;;;;;6.43;59.93;101896.78;5034378;28;20045;-62
2020/12/01 00:14:49;;;;;;;36.70;22.27;;;;;;;6.40;59.93;101892.50;5034393;28;20383;-62
2020/12/01 00:17:15;;;;;;;37.63;22.73;;;;;;;6.38;60.00;101891.66;5034057;28;20049;-62
2020/12/01 00:19:41;;;;;;;37.45;22.42;;;;;;;6.34;59.87;101880.44;5034068;28;20482;-62
2020/12/01 00:22:08;;;;;;;37.90;21.70;;;;;;;6.34;59.73;101879.59;5034003;28;20041;-62
2020/12/01 00:24:34;;;;;;;37.53;22.00;;;;;;;6.33;59.92;101883.09;5033473;28;20046;-62
2020/12/01 00:27:00;;;;;;;37.28;22.00;;;;;;;6.30;59.91;101876.19;5033815;28;20505;-62
2020/12/01 00:29:26;;;;;;;41.05;23.60;;;;;;;6.30;59.94;101881.41;5033999;28;20049;-61
2020/12/01 00:31:52;;;;;;;37.22;23.00;;;;;;;6.30;59.97;101876.19;5033817;28;20053;-62
2020/12/01 00:34:19;;;;;;;37.80;22.52;;;;;;;6.29;60.03;101871.84;5033812;28;20494;-61
2020/12/01 00:36:45;;;;;;;36.05;23.27;;;;;;;6.29;60.07;101864.03;5033670;28;20052;-62
2020/12/01 00:39:11;;;;;;;36.78;22.60;;;;;;;6.28;60.17;101864.91;5033680;28;20494;-62
2020/12/01 00:41:38;;;;;;;40.33;24.17;;;;;;;6.28;60.31;101861.47;5033673;28;20413;-62
2020/12/01 00:44:04;;;;;;;34.97;21.50;;;;;;;6.26;60.23;101861.50;5033674;28;20735;-62
2020/12/01 00:46:31;;;;;;;38.00;23.08;;;;;;;6.22;60.24;101846.78;5033684;28;20061;-62
2020/12/01 00:48:57;;;;;;;40.92;23.10;;;;;;;6.20;60.22;101852.03;5033367;28;20045;-62
2020/12/01 00:51:25;;;;;;;38.13;21.60;;;;;;;6.18;60.34;101846.03;5033424;28;20045;-62
2020/12/01 00:53:51;;;;;;;36.13;21.88;;;;;;;6.14;59.94;101846.94;5033373;28;20056;-62
2020/12/01 00:56:21;;;;;;;39.20;23.77;;;;;;;6.13;60.07;101852.19;5033270;28;20049;-62
2020/12/01 00:58:48;;;;;;;36.33;22.52;;;;;;;6.11;59.93;101846.19;5033379;28;20049;-62
2020/12/01 01:01:15;;;;;;;38.67;22.67;;;;;;;6.10;60.17;101847.91;5033040;28;20049;-62
2020/12/01 01:03:41;;;;;;;36.35;22.77;;;;;;;6.09;60.25;101853.16;5033487;28;20041;-62
2020/12/01 01:06:11;;;;;;;43.67;24.27;;;;;;;6.06;60.01;101854.09;5033163;28;20045;-61
2020/12/01 01:08:39;;;;;;;40.47;21.95;;;;;;;6.02;59.76;101855.03;5032951;28;20069;-62
2020/12/01 01:11:07;;;;;;;39.58;22.33;;;;;;;6.00;59.96;101849.00;5033138;28;20457;-62
2020/12/01 01:13:34;;;;;;;37.33;23.40;;;;;;;5.99;60.02;101853.34;5033135;28;20045;-62
2020/12/01 01:16:01;;;;;;;37.15;22.52;;;;;;;5.99;60.22;101842.94;5033019;28;20053;-62
2020/12/01 01:18:27;;;;;;;39.30;23.58;;;;;;;6.02;60.22;101844.63;5032306;28;20085;-62
2020/12/01 01:20:54;;;;;;;34.92;23.48;;;;;;;6.03;60.08;101835.88;5032920;28;20049;-62
2020/12/01 01:23:20;;;;;;;38.63;22.90;;;;;;;6.04;60.24;101837.59;5033185;28;20096;-62
2020/12/01 01:25:47;;;;;;;48.55;24.20;;;;;;;6.04;60.16;101835.88;5032729;28;20060;-61
2020/12/01 01:28:13;;;;;;;40.72;23.92;;;;;;;6.06;60.32;101841.06;5032890;28;20057;-62
2020/12/01 01:30:43;;;;;;;38.17;24.05;;;;;;;6.05;60.45;101834.97;5032834;28;20049;-62
2020/12/01 01:33:11;;;;;;;44.92;25.08;;;;;;;6.07;60.68;101834.97;5032722;28;20107;-62
2020/12/01 01:35:38;;;;;;;40.58;24.40;;;;;;;6.08;60.55;101828.00;5032795;28;20052;-63
2020/12/01 01:38:06;;;;;;;45.08;24.55;;;;;;;6.07;60.51;101832.34;5032556;28;20144;-62
2020/12/01 01:40:33;;;;;;;39.00;22.77;;;;;;;6.08;60.59;101830.59;5032580;28;20049;-62
2020/12/01 01:43:00;;;;;;;41.10;23.08;;;;;;;6.07;60.57;101836.69;5032631;28;20479;-62
2020/12/01 01:45:41;;;;;;;40.65;23.40;;;;;;;6.07;60.56;101826.25;5032639;28;20053;-62
2020/12/01 01:48:33;;;;;;;39.83;22.33;;;;;;;6.08;60.82;101831.44;5032397;28;20046;-62
2020/12/01 01:51:00;;;;;;;38.70;23.48;;;;;;;6.09;60.74;101825.34;5032477;28;20505;-62
2020/12/01 01:53:31;;;;;;;44.72;24.88;;;;;;;6.10;60.51;101824.47;5032471;28;20055;-62
2020/12/01 01:56:01;;;;;;;40.17;22.02;;;;;;;6.11;60.47;101827.94;5032338;28;20041;-62
2020/12/01 01:58:35;;;;;;;38.50;22.60;;;;;;;6.11;60.43;101820.13;5032532;28;20057;-62
2020/12/01 02:01:11;;;;;;;36.30;21.95;;;;;;;6.12;60.24;101809.66;5032566;28;20073;-62
2020/12/01 02:03:50;;;;;;;38.38;23.80;;;;;;;6.13;60.24;101810.50;5032555;28;20606;-62
2020/12/01 02:06:23;;;;;;;41.58;22.83;;;;;;;6.15;60.53;101801.78;5032257;28;20046;-62
2020/12/01 02:08:55;;;;;;;42.80;24.00;;;;;;;6.17;60.20;101797.41;5032099;28;20053;-62
2020/12/01 02:11:22;;;;;;;42.55;23.20;;;;;;;6.18;60.49;101791.28;5032399;28;20061;-62
2020/12/01 02:14:11;;;;;;;35.13;21.05;;;;;;;6.20;60.40;101788.66;5032280;28;20391;-62
2020/12/01 02:16:41;;;;;;;37.38;21.10;;;;;;;6.21;60.15;101778.19;5032256;28;20049;-62
2020/12/01 02:19:11;;;;;;;31.65;20.17;;;;;;;6.24;59.73;101781.63;5032100;28;20103;-62
2020/12/01 02:21:39;;;;;;;34.92;19.17;;;;;;;6.25;59.80;101778.97;5032199;28;20053;-62
2020/12/01 02:24:10;;;;;;;30.92;19.33;;;;;;;6.25;59.68;101773.75;5032030;28;20128;-62
2020/12/01 02:26:36;;;;;;;34.22;19.08;;;;;;;6.25;59.50;101778.97;5032195;28;20049;-62
2020/12/01 02:29:10;;;;;;;29.00;17.02;;;;;;;6.26;59.46;101772.88;5033997;28;20081;-62
2020/12/01 02:31:37;;;;;;;29.05;18.45;;;;;;;6.27;59.37;101768.50;5036167;28;20042;-62
2020/12/01 02:34:05;;;;;;;28.17;17.90;;;;;;;6.28;59.45;101767.63;5036023;28;20048;-62
2020/12/01 02:36:31;;;;;;;29.00;18.50;;;;;;;6.29;59.18;101764.13;5036049;28;20414;-62
2020/12/01 02:38:58;;;;;;;28.50;16.85;;;;;;;6.30;58.74;101760.66;5035948;28;20052;-62
2020/12/01 02:41:24;;;;;;;22.40;14.48;;;;;;;6.32;58.70;101754.50;5036103;28;20060;-62
2020/12/01 02:43:51;;;;;;;24.88;15.85;;;;;;;6.33;58.38;101756.19;5035887;28;20045;-62
2020/12/01 02:46:18;;;;;;;24.38;14.13;;;;;;;6.35;58.20;101740.53;5036189;28;20056;-62
2020/12/01 02:48:45;;;;;;;20.05;13.90;;;;;;;6.36;57.96;101747.44;5035772;28;20477;-62
2020/12/01 02:51:11;;;;;;;23.67;14.70;;;;;;;6.36;57.60;101737.91;5035788;28;20050;-62
2020/12/01 02:53:37;;;;;;;21.17;13.38;;;;;;;6.37;57.31;101731.78;5035698;28;20509;-62
2020/12/01 02:56:04;;;;;;;21.75;13.77;;;;;;;6.38;57.10;101733.47;5035722;28;20045;-62
2020/12/01 02:58:30;;;;;;;24.60;15.38;;;;;;;6.40;57.01;101724.78;5034628;28;20046;-62
2020/12/01 03:00:56;;;;;;;23.27;14.02;;;;;;;6.39;56.79;101723.94;5035565;28;20076;-63
2020/12/01 03:03:22;;;;;;;22.05;14.32;;;;;;;6.40;56.57;101722.16;5031484;28;20506;-62
2020/12/01 03:05:48;;;;;;;23.40;14.43;;;;;;;6.41;56.52;101726.50;5032238;28;20049;-62
2020/12/01 03:08:15;;;;;;;22.27;14.48;;;;;;;6.40;56.43;101720.44;5031609;28;20490;-62
2020/12/01 03:10:41;;;;;;;24.92;14.02;;;;;;;6.41;56.25;101723.88;5032289;28;20111;-62
2020/12/01 03:54:00;;;;;;;23.13;13.40;;;;;;;6.42;55.80;101670.84;5011976;28;20056;-62
2020/12/01 03:56:27;;;;;;;25.05;14.20;;;;;;;6.42;55.97;101670.84;5012017;28;20068;-62
2020/12/01 03:58:53;;;;;;;21.13;13.85;;;;;;;6.41;56.09;101663.91;5031061;28;20054;-62
2020/12/01 04:01:19;;;;;;;21.77;13.77;;;;;;;6.40;56.16;101659.59;5031262;28;20049;-62
2020/12/01 04:03:45;;;;;;;22.17;13.40;;;;;;;6.40;56.04;101664.81;5031295;28;20057;-62
2020/12/01 04:06:12;;;;;;;20.88;13.40;;;;;;;6.40;56.16;101665.69;5031159;28;20046;-62
2020/12/01 04:08:38;;;;;;;24.75;14.30;;;;;;;6.39;55.79;101658.75;5030857;28;20390;-62
2020/12/01 04:11:05;;;;;;;22.98;14.02;;;;;;;6.39;55.79;101656.16;5030918;28;20057;-62
2020/12/01 04:13:33;;;;;;;24.08;15.18;;;;;;;6.37;55.85;101648.38;5031291;28;20053;-62
2020/12/01 04:16:00;;;;;;;22.27;13.95;;;;;;;6.38;56.00;101650.06;5030957;28;20045;-62
2020/12/01 04:18:26;;;;;;;24.58;14.93;;;;;;;6.37;56.06;101648.38;5030885;28;20049;-62
2020/12/01 04:20:52;;;;;;;25.20;14.52;;;;;;;6.37;56.31;101658.78;5030892;28;20428;-62
2020/12/01 04:23:19;;;;;;;28.55;14.25;;;;;;;6.39;56.40;101653.53;5030657;28;20046;-62
2020/12/01 04:25:45;;;;;;;21.67;13.73;;;;;;;6.38;56.49;101647.44;5030932;28;20053;-63
2020/12/01 04:28:11;;;;;;;21.27;13.15;;;;;;;6.37;56.60;101652.72;5030524;28;20049;-63
2020/12/01 04:30:37;;;;;;;26.02;13.88;;;;;;;6.38;56.71;101650.06;5030489;28;20072;-62
2020/12/01 04:33:04;;;;;;;19.80;12.90;;;;;;;6.38;56.75;101651.81;5030594;28;20077;-62
2020/12/01 04:35:30;;;;;;;24.67;13.50;;;;;;;6.38;56.82;101652.66;5030515;28;20119;-62
2020/12/01 04:37:59;;;;;;;21.67;13.30;;;;;;;6.38;56.70;101650.06;5030260;28;20045;-62
2020/12/01 04:40:31;;;;;;;22.00;13.50;;;;;;;6.39;56.44;101648.31;5030577;28;20054;-62
2020/12/01 04:43:02;;;;;;;21.13;13.02;;;;;;;6.40;56.45;101643.97;5030173;28;20045;-62
2020/12/01 04:45:29;;;;;;;20.30;12.95;;;;;;;6.39;56.35;101653.53;5030205;28;20453;-62
2020/12/01 04:48:16;;;;;;;19.27;13.45;;;;;;;6.40;56.15;101646.56;5030281;28;20053;-62
2020/12/01 04:50:52;;;;;;;24.02;14.35;;;;;;;6.42;56.03;101652.59;5030511;28;20056;-62
2020/12/01 04:53:36;;;;;;;19.35;12.73;;;;;;;6.42;56.03;101643.03;5029868;28;20045;-62
2020/12/01 04:56:33;;;;;;;19.40;12.32;;;;;;;6.43;55.93;101646.50;5030027;28;20049;-62
2020/12/01 04:59:05;;;;;;;19.40;11.82;;;;;;;6.42;55.71;101645.63;5030018;28;20486;-62
2020/12/01 05:02:09;;;;;;;19.25;12.50;;;;;;;6.42;55.56;101643.03;5030064;28;20506;-62
2020/12/01 05:04:57;;;;;;;22.05;13.52;;;;;;;6.43;55.94;101639.53;5027570;28;20831;-62
2020/12/01 05:07:51;;;;;;;19.58;12.27;;;;;;;6.42;56.10;101629.97;5029565;28;20053;-62
2020/12/01 05:10:19;;;;;;;24.10;13.43;;;;;;;6.43;56.35;101636.06;5029574;28;20057;-62
2020/12/01 05:12:56;;;;;;;24.40;13.15;;;;;;;6.42;56.36;101636.97;5029891;28;20052;-62
2020/12/01 05:15:32;;;;;;;17.95;12.57;;;;;;;6.42;56.25;101631.75;5029591;28;20056;-62
2020/12/01 05:18:20;;;;;;;21.38;12.93;;;;;;;6.42;56.35;101623.94;5028867;28;20494;-62
2020/12/01 05:20:53;;;;;;;20.35;12.32;;;;;;;6.43;56.59;101620.44;5029743;28;20453;-62
2020/12/01 05:23:43;;;;;;;21.40;13.02;;;;;;;6.43;56.33;101617.81;5029780;28;20057;-62
2020/12/01 05:26:13;;;;;;;23.10;13.38;;;;;;;6.42;56.36;101622.16;5029702;28;20068;-62
2020/12/01 05:28:51;;;;;;;22.27;13.07;;;;;;;6.42;56.40;101622.16;5029562;28;20486;-63
2020/12/01 05:31:20;;;;;;;23.05;12.98;;;;;;;6.43;56.92;101616.06;5029345;28;20045;-62
2020/12/01 05:34:02;;;;;;;20.20;11.93;;;;;;;6.42;56.95;101614.34;5029331;28;20409;-62
2020/12/01 05:36:31;;;;;;;20.83;13.02;;;;;;;6.44;57.18;101609.97;5029566;28;20081;-62
2020/12/01 05:39:19;;;;;;;21.80;13.77;;;;;;;6.44;57.20;101606.50;5029492;28;20132;-62
2020/12/01 05:42:05;;;;;;;22.08;12.55;;;;;;;6.43;57.27;101596.97;5029137;28;20521;-62
2020/12/01 05:44:34;;;;;;;21.60;12.75;;;;;;;6.44;57.22;101602.13;5029681;28;20056;-62
2020/12/01 05:47:15;;;;;;;20.80;12.63;;;;;;;6.44;57.41;101609.13;5029260;28;20049;-62
2020/12/01 05:49:50;;;;;;;21.70;13.35;;;;;;;6.43;57.46;101599.56;5028551;28;20045;-62
2020/12/01 05:52:42;;;;;;;19.42;12.07;;;;;;;6.44;57.71;101598.69;5028536;28;20045;-62
2020/12/01 05:55:16;;;;;;;23.27;13.30;;;;;;;6.43;57.83;101600.41;5029331;28;20091;-62
2020/12/01 05:57:56;;;;;;;22.50;13.18;;;;;;;6.43;58.05;101594.34;5029218;28;20492;-62
2020/12/01 06:00:29;;;;;;;22.77;12.52;;;;;;;6.43;58.22;101597.81;5011151;28;20108;-62
2020/12/01 06:03:07;;;;;;;21.08;12.95;;;;;;;6.43;58.47;101597.81;5024564;28;20045;-62
2020/12/01 06:05:36;;;;;;;19.33;13.52;;;;;;;6.45;58.90;101602.97;5009309;28;20392;-63
2020/12/01 06:08:41;;;;;;;21.83;13.50;;;;;;;6.44;58.80;101596.91;5021740;28;20062;-63
2020/12/01 06:11:10;;;;;;;21.85;13.07;;;;;;;6.45;59.02;101596.03;5028993;28;20042;-65
2020/12/01 06:13:44;;;;;;;21.02;13.30;;;;;;;6.46;58.93;101595.13;5029230;28;20042;-65
2020/12/01 06:16:48;;;;;;;20.63;13.27;;;;;;;6.47;58.32;101595.97;5027726;28;20052;-64
2020/12/01 06:19:26;;;;;;;20.17;13.00;;;;;;;6.47;57.91;101588.16;5028989;28;20111;-68
2020/12/01 06:21:58;;;;;;;20.80;12.63;;;;;;;6.48;57.82;101593.34;5029023;28;20051;-66
2020/12/01 06:24:45;;;;;;;21.02;13.18;;;;;;;6.49;57.64;101594.22;5028683;28;20057;-65
2020/12/01 06:27:51;;;;;;;19.25;13.30;;;;;;;6.49;57.82;101597.66;5029000;28;20064;-67
2020/12/01 06:30:54;;;;;;;21.38;13.25;;;;;;;6.49;58.07;101594.22;5028415;28;20061;-67
2020/12/01 06:33:29;;;;;;;22.23;13.90;;;;;;;6.48;58.14;101595.09;5028873;28;20056;-66
2020/12/01 06:36:20;;;;;;;22.58;13.13;;;;;;;6.47;58.38;101586.41;5028882;28;20048;-64
2020/12/01 06:39:01;;;;;;;23.35;13.52;;;;;;;6.48;58.72;101597.72;5028778;28;20049;-60
2020/12/01 06:41:32;;;;;;;20.27;13.18;;;;;;;6.47;58.66;101585.56;5028221;28;20049;-65
2020/12/01 06:43:58;;;;;;;19.30;13.07;;;;;;;6.47;58.83;101589.00;5028019;28;20505;-65
2020/12/01 06:46:37;;;;;;;22.40;13.18;;;;;;;6.48;58.93;101595.94;5028333;28;20049;-64
2020/12/01 06:49:06;;;;;;;24.90;14.10;;;;;;;6.49;58.88;101591.59;5028376;28;20482;-68
2020/12/01 06:51:32;;;;;;;21.83;13.43;;;;;;;6.50;59.01;101591.56;5028870;28;20457;-61
2020/12/01 06:54:11;;;;;;;20.08;13.25;;;;;;;6.78;61.65;101603.00;5027844;28;20049;-65
2020/12/01 06:56:38;;;;;;;19.27;12.38;;;;;;;6.80;60.07;101590.78;5025400;28;20517;-64
2020/12/01 06:59:08;;;;;;;19.85;12.75;;;;;;;6.78;59.85;101592.56;5028229;28;20099;-64
2020/12/01 07:01:35;;;;;;;20.52;13.30;;;;;;;6.75;59.50;101575.25;5027874;28;20104;-64
2020/12/01 07:04:12;;;;;;;20.77;12.90;;;;;;;6.73;59.73;101589.22;5027866;28;20049;-64
2020/12/01 07:06:51;;;;;;;22.40;13.68;;;;;;;6.68;59.21;101579.78;5025564;28;20041;-64
2020/12/01 07:09:44;;;;;;;19.15;12.65;;;;;;;6.68;59.13;101581.53;5025362;28;20060;-63
2020/12/01 07:12:13;;;;;;;17.85;11.57;;;;;;;6.66;58.93;101573.72;5027959;28;20046;-65
2020/12/01 07:15:00;;;;;;;17.48;12.40;;;;;;;6.65;58.53;101565.94;5028205;28;20080;-64
2020/12/01 07:17:35;;;;;;;20.63;13.00;;;;;;;6.64;58.32;101564.25;5030825;28;20044;-64
2020/12/01 07:20:40;;;;;;;21.65;12.50;;;;;;;6.65;58.29;101565.94;5031188;28;20124;-65
2020/12/01 07:23:11;;;;;;;22.33;13.63;;;;;;;6.66;58.07;101557.25;4990121;28;20043;-64
2020/12/01 07:26:01;;;;;;;21.00;13.20;;;;;;;6.68;58.03;101553.69;4988823;28;20053;-64
2020/12/01 07:28:41;;;;;;;22.85;13.63;;;;;;;6.70;58.02;101558.84;5002679;28;20056;-64
2020/12/01 07:31:19;;;;;;;21.13;13.40;;;;;;;6.70;57.89;101554.50;5027345;28;20044;-61
2020/12/01 07:33:56;;;;;;;25.27;14.05;;;;;;;6.73;57.85;101550.97;5028638;28;20044;-63
2020/12/01 07:36:23;;;;;;;28.45;14.30;;;;;;;6.74;57.69;101546.59;5028941;28;20049;-63
2020/12/01 07:39:07;;;;;;;23.92;14.27;;;;;;;6.75;57.51;101546.53;5026322;28;20564;-64
2020/12/01 07:41:33;;;;;;;25.35;13.75;;;;;;;6.76;57.35;101540.44;5027527;28;20046;-62
2020/12/01 07:44:09;;;;;;;22.58;13.77;;;;;;;6.77;57.30;101539.53;5030567;28;20568;-62
2020/12/01 07:49:19;;;;;;;28.30;15.85;;;;;;;6.81;57.21;101538.56;5029265;28;20321;-63
2020/12/01 07:51:47;;;;;;;25.52;16.90;;;;;;;6.82;57.27;101544.66;5027822;28;20052;-63
2020/12/01 07:54:19;;;;;;;28.30;17.33;;;;;;;6.82;57.06;101540.28;5030531;28;20049;-63
2020/12/01 07:56:46;;;;;;;28.42;16.15;;;;;;;6.83;57.16;101549.81;5010992;28;20046;-63
2020/12/01 07:59:13;;;;;;;27.00;14.60;;;;;;;6.84;57.21;101553.25;5010116;28;20715;-63
2020/12/01 08:01:41;;;;;;;26.77;14.07;;;;;;;6.83;57.23;101548.94;5010651;28;20132;-64
2020/12/01 08:04:20;;;;;;;24.60;13.52;;;;;;;6.83;57.01;101549.81;5025460;28;20042;-62
2020/12/01 08:07:01;;;;;;;26.23;15.70;;;;;;;6.86;57.29;101548.88;5030380;28;20045;-62
2020/12/01 08:09:28;;;;;;;26.35;15.85;;;;;;;6.85;56.92;101540.16;5029567;28;20065;-64
2020/12/01 08:11:59;;;;;;;30.20;15.00;;;;;;;6.88;57.12;101535.78;5030289;28;20126;-63
2020/12/01 08:14:25;;;;;;;24.08;15.35;;;;;;;6.89;57.04;101537.50;5029451;28;20046;-63
2020/12/01 08:17:20;;;;;;;28.27;15.82;;;;;;;6.89;57.21;101534.88;5030253;28;20056;-63
2020/12/01 08:19:47;;;;;;;24.17;15.10;;;;;;;6.89;57.49;101530.50;5029564;28;20482;-63
2020/12/01 08:22:20;;;;;;;24.85;14.88;;;;;;;6.89;57.30;101535.72;5029369;28;20462;-64
2020/12/01 08:24:47;;;;;;;24.70;14.55;;;;;;;6.90;57.63;101544.44;5028811;28;20041;-63
2020/12/01 08:27:21;;;;;;;26.00;16.27;;;;;;;6.89;57.33;101540.94;5030066;28;20046;-64
2020/12/01 08:29:50;;;;;;;29.95;16.50;;;;;;;6.89;57.23;101532.28;5029673;28;20049;-64
2020/12/01 08:32:41;;;;;;;27.08;16.20;;;;;;;6.89;57.25;101535.72;5030275;28;20482;-66
2020/12/01 08:35:40;;;;;;;26.67;15.25;;;;;;;6.91;57.04;101538.28;5030404;28;20049;-62
2020/12/01 08:38:34;;;;;;;30.70;15.98;;;;;;;6.92;57.06;101529.56;5030368;28;20060;-62
2020/12/01 08:41:10;;;;;;;24.13;15.48;;;;;;;6.94;57.29;101522.56;5029449;28;20124;-63
2020/12/01 08:43:56;;;;;;;25.60;14.85;;;;;;;6.95;56.92;101526.88;5029903;28;20041;-64
2020/12/01 08:46:25;;;;;;;24.75;15.43;;;;;;;6.96;56.95;101523.38;5030066;28;20497;-62
2020/12/01 08:49:07;;;;;;;25.50;14.73;;;;;;;6.97;56.96;101522.44;5029585;28;20046;-63
2020/12/01 08:51:47;;;;;;;32.80;17.40;;;;;;;6.98;56.81;101514.59;5029813;28;20052;-62
2020/12/01 08:54:25;;;;;;;25.52;15.35;;;;;;;6.98;56.68;101509.38;5029612;28;20119;-64
2020/12/01 08:57:10;;;;;;;26.60;14.30;;;;;;;6.99;56.71;101511.06;5029440;28;20041;-64
2020/12/01 08:59:59;;;;;;;26.83;14.95;;;;;;;7.00;56.72;101504.97;5028516;28;20486;-64
2020/12/01 09:02:36;;;;;;;31.25;13.40;;;;;;;7.02;56.37;101491.84;5029665;28;20482;-64
2020/12/01 09:05:04;;;;;;;21.80;12.15;;;;;;;7.02;56.05;101492.72;5029447;28;20056;-64
2020/12/01 09:07:39;;;;;;;24.33;12.65;;;;;;;7.05;55.67;101504.84;5028942;28;20465;-64
2020/12/01 09:10:20;;;;;;;24.10;12.18;;;;;;;7.07;55.63;101495.19;5029352;28;20057;-63
2020/12/01 09:13:20;;;;;;;19.85;12.68;;;;;;;7.11;55.07;101490.72;5029387;28;20493;-62
2020/12/01 09:16:15;;;;;;;23.20;12.93;;;;;;;7.13;55.36;101494.16;5029587;28;20052;-63
2020/12/01 09:23:44;;;;;;;22.25;13.45;;;;;;;7.15;54.97;101472.34;5028782;28;20501;-64
2020/12/01 09:26:20;;;;;;;22.05;13.13;;;;;;;7.17;54.92;101482.72;5026833;28;20053;-64
2020/12/01 09:28:50;;;;;;;20.25;11.65;;;;;;;7.17;54.72;101473.16;5027520;28;20053;-63
2020/12/01 09:31:18;;;;;;;20.30;13.57;;;;;;;7.17;54.79;101477.50;5028193;28;20071;-63
2020/12/01 09:33:44;;;;;;;19.23;11.98;;;;;;;7.14;54.73;101473.22;5029100;28;20057;-64
2020/12/01 09:36:19;;;;;;;18.08;11.48;;;;;;;7.15;54.54;101471.50;5028980;28;20045;-64
2020/12/01 09:38:45;;;;;;;23.13;12.35;;;;;;;7.14;54.74;101475.00;5028260;28;20146;-64
2020/12/01 09:41:16;;;;;;;20.85;11.60;;;;;;;7.14;54.58;101464.56;5028322;28;20038;-64
2020/12/01 09:43:51;;;;;;;19.83;12.75;;;;;;;7.14;54.48;101456.72;5028832;28;20052;-63
2020/12/01 09:46:26;;;;;;;21.00;11.45;;;;;;;7.17;54.13;101452.28;5028287;28;20485;-63
2020/12/01 09:48:53;;;;;;;22.10;11.52;;;;;;;7.20;54.19;101446.09;5028221;28;20045;-64
2020/12/01 09:51:20;;;;;;;19.05;11.15;;;;;;;7.24;54.08;101444.22;5028982;28;20049;-63
2020/12/01 09:54:11;;;;;;;21.38;12.50;;;;;;;7.29;54.02;101443.19;5028857;28;20041;-63
2020/12/01 09:56:52;;;;;;;19.98;12.38;;;;;;;7.35;53.46;101429.94;5028912;28;20417;-63
2020/12/01 10:18:32;;;;;;;37.28;18.65;;;;;;;7.67;51.40;101401.06;5028146;28;20498;-63
2020/12/01 10:36:55;;;;;;;15.07;9.00;;;;;;;7.66;50.29;101365.41;5026493;28;20056;-64
2020/12/01 10:39:22;;;;;;;15.52;9.30;;;;;;;7.65;50.17;101354.09;5026807;28;20143;-63
2020/12/01 10:41:50;;;;;;;15.98;9.60;;;;;;;7.66;50.14;101349.72;5027962;28;20044;-63
2020/12/01 10:44:17;;;;;;;12.65;8.95;;;;;;;7.67;49.99;101346.22;5026871;28;20052;-64
2020/12/01 10:46:46;;;;;;;14.70;9.07;;;;;;;7.68;49.76;101347.91;5028132;28;20049;-64
2020/12/01 10:49:13;;;;;;;18.05;9.20;;;;;;;7.68;49.87;101351.38;5026659;28;20049;-63
2020/12/01 10:51:39;;;;;;;17.30;8.73;;;;;;;7.68;49.51;101351.38;5031124;28;20041;-67
2020/12/01 10:54:05;;;;;;;17.35;9.95;;;;;;;7.70;49.42;101342.66;5031116;28;20424;-62
2020/12/01 10:56:31;;;;;;;16.33;9.45;;;;;;;7.68;49.25;101333.09;5032099;28;20052;-64
2020/12/01 10:58:58;;;;;;;18.85;10.45;;;;;;;7.68;49.18;101332.22;5031902;28;20053;-62
2020/12/01 11:01:24;;;;;;;13.82;9.45;;;;;;;7.66;49.13;101321.84;5031709;28;20050;-62
2020/12/01 11:03:51;;;;;;;16.95;8.80;;;;;;;7.66;49.30;101323.59;5031388;28;20091;-63
2020/12/01 11:06:17;;;;;;;17.73;9.70;;;;;;;7.65;49.15;101327.13;5030998;28;20079;-66
2020/12/01 11:08:44;;;;;;;15.60;9.60;;;;;;;7.63;49.08;101318.47;5028725;28;20046;-65
2020/12/01 11:11:15;;;;;;;15.63;9.30;;;;;;;7.64;49.08;101310.59;5030218;28;20048;-62
2020/12/01 11:13:42;;;;;;;18.13;9.50;;;;;;;7.64;49.15;101308.00;5026873;28;20056;-63
2020/12/01 11:16:08;;;;;;;13.52;8.40;;;;;;;7.62;49.20;101306.34;5030824;28;20441;-62
2020/12/01 11:18:34;;;;;;;16.92;9.90;;;;;;;7.61;49.22;101310.69;5031087;28;20052;-63
2020/12/01 11:21:00;;;;;;;13.23;6.70;;;;;;;8.03;56.78;101303.97;5031129;28;20073;-64
2020/12/01 11:23:27;;;;;;;11.45;7.55;;;;;;;8.58;57.76;101306.31;5030773;28;20069;-64
2020/12/01 11:25:54;;;;;;;14.23;7.85;;;;;;;9.05;58.33;101292.19;5030506;28;20045;-65
2020/12/01 11:28:20;;;;;;;13.63;9.20;;;;;;;9.30;58.03;101301.66;5031287;28;20049;-63
2020/12/01 11:30:48;;;;;;;12.73;9.02;;;;;;;9.15;55.35;101301.41;5030391;28;20052;-63
2020/12/01 11:33:15;;;;;;;18.85;9.85;;;;;;;8.87;51.88;101283.34;5028733;28;20049;-64
2020/12/01 11:35:42;;;;;;;13.77;8.60;;;;;;;8.66;50.86;101285.06;5013194;28;20506;-62
2020/12/01 11:38:08;;;;;;;14.07;8.90;;;;;;;8.50;50.42;101283.03;5012427;28;20046;-64
2020/12/01 11:40:34;;;;;;;15.13;9.15;;;;;;;8.39;49.99;101271.28;5022876;28;20053;-63
2020/12/01 11:43:00;;;;;;;13.50;9.27;;;;;;;8.27;49.76;101270.00;5028603;28;20045;-64
2020/12/01 11:45:27;;;;;;;14.23;8.88;;;;;;;8.18;49.43;101269.41;5028939;28;20497;-65
2020/12/01 11:47:53;;;;;;;14.55;9.10;;;;;;;8.17;49.65;101267.72;5030255;28;20041;-62
2020/12/01 11:50:20;;;;;;;16.92;9.65;;;;;;;8.17;49.46;101274.72;5030238;28;20053;-64
2020/12/01 11:52:46;;;;;;;14.80;8.63;;;;;;;8.14;49.29;101264.38;5029690;28;20052;-67
2020/12/01 11:55:22;;;;;;;12.48;8.20;;;;;;;8.09;49.04;101261.09;5031083;28;20103;-67
2020/12/01 11:57:48;;;;;;;13.77;7.90;;;;;;;8.05;48.58;101256.88;5029594;28;20046;-67
2020/12/01 12:00:22;;;;;;;13.00;7.88;;;;;;;8.00;48.29;101260.53;5030110;28;20053;-67
2020/12/01 12:02:48;;;;;;;11.95;7.13;;;;;;;7.96;47.84;101253.72;5030143;28;20050;-66
2020/12/01 12:05:15;;;;;;;12.95;7.63;;;;;;;7.94;47.93;101257.28;5030594;28;20050;-65
2020/12/01 12:07:42;;;;;;;12.25;7.70;;;;;;;7.92;47.58;101253.88;5030316;28;20107;-67
2020/12/01 12:10:08;;;;;;;12.98;7.63;;;;;;;7.91;47.73;101244.31;5030195;28;20064;-65
2020/12/01 12:12:35;;;;;;;14.13;8.30;;;;;;;7.91;47.65;101245.19;5030063;28;20052;-67
2020/12/01 12:15:06;;;;;;;17.92;8.25;;;;;;;8.13;51.84;101249.59;5030358;28;20125;-66
2020/12/01 12:17:35;;;;;;;15.77;7.72;;;;;;;8.09;50.21;101234.97;5028570;28;20037;-65
2020/12/01 12:20:03;;;;;;;18.10;8.18;;;;;;;8.04;49.69;101229.03;5029083;28;20048;-65
2020/12/01 12:22:29;;;;;;;13.98;7.53;;;;;;;8.00;49.12;101231.78;5030174;28;20128;-62
2020/12/01 12:24:56;;;;;;;14.57;8.15;;;;;;;7.98;48.70;101225.75;5024343;28;20124;-63
2020/12/01 12:27:22;;;;;;;10.52;6.97;;;;;;;7.96;48.67;101221.47;5029121;28;20060;-63
2020/12/01 12:29:49;;;;;;;15.75;7.55;;;;;;;7.95;48.28;101217.19;5025604;28;20041;-65
2020/12/01 12:32:16;;;;;;;9.90;7.10;;;;;;;7.92;48.09;101217.28;5029299;28;20057;-63
2020/12/01 12:34:42;;;;;;;10.98;7.43;;;;;;;7.89;47.68;101220.88;5029118;28;20049;-61
2020/12/01 12:37:09;;;;;;;11.75;7.25;;;;;;;7.87;47.31;101211.38;5029407;28;20041;-68
2020/12/01 12:39:35;;;;;;;11.65;6.97;;;;;;;7.84;47.21;101217.59;5030100;28;20053;-60
2020/12/01 12:42:02;;;;;;;11.23;6.75;;;;;;;7.85;47.20;101219.28;5029516;28;20038;-63
2020/12/01 12:44:28;;;;;;;12.10;6.78;;;;;;;7.83;47.07;101216.75;5029707;28;20498;-62
2020/12/01 12:46:58;;;;;;;11.57;6.88;;;;;;;7.81;46.94;101209.88;5029569;28;20049;-62
2020/12/01 12:49:24;;;;;;;13.75;7.22;;;;;;;7.81;46.95;101218.56;5029578;28;20422;-62
2020/12/01 12:51:50;;;;;;;12.63;7.07;;;;;;;7.81;46.72;101207.25;5029786;28;20045;-62
2020/12/01 12:54:16;;;;;;;13.63;7.88;;;;;;;7.80;46.77;101209.00;5029209;28;20041;-62
2020/12/01 12:56:43;;;;;;;12.88;7.32;;;;;;;7.80;46.76;101203.78;5029182;28;20052;-62
2020/12/01 12:59:09;;;;;;;12.52;7.30;;;;;;;7.79;46.82;101203.84;5028468;28;20058;-63
2020/12/01 13:01:36;;;;;;;10.43;6.95;;;;;;;7.79;46.84;101201.22;5029030;28;20508;-62
2020/12/01 13:04:02;;;;;;;13.15;7.40;;;;;;;7.78;46.52;101196.91;5028644;28;20043;-62